sensor_id;sensor_type;location;lat;lon;timestamp;temperature;humidity
31731;DHT22;18310;55.586;12.286;2022-10-15T00:02:33;16.40;76.00
31731;DHT22;18310;55.586;12.286;2022-10-15T00:05:37;16.40;76.00
31731;DHT22;18310;55.586;12.286;2022-10-15T00:08:41;16.40;76.00
31731;DHT22;18310;55.586;12.286;2022-10-15T00:11:47;16.40;76.00
31731;DHT22;18310;55.586;12.286;2022-10-15T00:14:50;16.20;75.80
31731;DHT22;18310;55.586;12.286;2022-10-15T00:17:54;16.50;75.90
31731;DHT22;18310;55.586;12.286;2022-10-15T00:20:57;16.50;76.50
31731;DHT22;18310;55.586;12.286;2022-10-15T00:24:04;16.50;75.90
31731;DHT22;18310;55.586;12.286;2022-10-15T00:27:10;16.50;76.10
31731;DHT22;18310;55.586;12.286;2022-10-15T00:30:14;16.50;76.10
31731;DHT22;18310;55.586;12.286;2022-10-15T00:33:17;16.50;76.60
31731;DHT22;18310;55.586;12.286;2022-10-15T00:36:23;16.50;76.10
31731;DHT22;18310;55.586;12.286;2022-10-15T00:39:27;16.50;76.20
31731;DHT22;18310;55.586;12.286;2022-10-15T00:42:33;16.50;76.20
31731;DHT22;18310;55.586;12.286;2022-10-15T00:45:36;16.50;76.40
31731;DHT22;18310;55.586;12.286;2022-10-15T00:48:40;16.50;76.40
31731;DHT22;18310;55.586;12.286;2022-10-15T00:51:46;16.50;76.50
31731;DHT22;18310;55.586;12.286;2022-10-15T00:54:58;16.50;76.80
31731;DHT22;18310;55.586;12.286;2022-10-15T00:58:11;16.50;77.00
31731;DHT22;18310;55.586;12.286;2022-10-15T01:01:19;16.50;77.00
31731;DHT22;18310;55.586;12.286;2022-10-15T01:04:25;16.50;76.80
31731;DHT22;18310;55.586;12.286;2022-10-15T01:07:35;16.50;76.90
31731;DHT22;18310;55.586;12.286;2022-10-15T01:10:43;16.60;77.10
31731;DHT22;18310;55.586;12.286;2022-10-15T01:14:01;16.50;77.20
31731;DHT22;18310;55.586;12.286;2022-10-15T01:17:20;16.50;77.30
31731;DHT22;18310;55.586;12.286;2022-10-15T01:20:56;16.50;77.60
31731;DHT22;18310;55.586;12.286;2022-10-15T01:24:38;16.50;77.70
31731;DHT22;18310;55.586;12.286;2022-10-15T01:27:51;16.90;77.90
31731;DHT22;18310;55.586;12.286;2022-10-15T01:31:04;15.80;76.70
31731;DHT22;18310;55.586;12.286;2022-10-15T01:34:20;16.50;77.00
31731;DHT22;18310;55.586;12.286;2022-10-15T01:37:36;16.50;77.10
31731;DHT22;18310;55.586;12.286;2022-10-15T01:40:46;16.40;77.00
31731;DHT22;18310;55.586;12.286;2022-10-15T01:43:58;16.40;77.00
31731;DHT22;18310;55.586;12.286;2022-10-15T01:47:10;16.40;77.00
31731;DHT22;18310;55.586;12.286;2022-10-15T01:50:23;16.40;77.00
31731;DHT22;18310;55.586;12.286;2022-10-15T01:53:30;16.40;77.00
31731;DHT22;18310;55.586;12.286;2022-10-15T01:56:38;16.40;76.90
31731;DHT22;18310;55.586;12.286;2022-10-15T01:59:48;16.40;77.00
31731;DHT22;18310;55.586;12.286;2022-10-15T02:02:58;16.40;77.00
31731;DHT22;18310;55.586;12.286;2022-10-15T02:06:06;16.30;77.30
31731;DHT22;18310;55.586;12.286;2022-10-15T02:09:22;16.30;77.20
31731;DHT22;18310;55.586;12.286;2022-10-15T02:12:38;16.00;77.10
31731;DHT22;18310;55.586;12.286;2022-10-15T02:16:01;16.40;77.40
31731;DHT22;18310;55.586;12.286;2022-10-15T02:19:20;16.40;77.60
31731;DHT22;18310;55.586;12.286;2022-10-15T02:22:36;16.30;77.40
31731;DHT22;18310;55.586;12.286;2022-10-15T02:25:44;16.30;77.50
31731;DHT22;18310;55.586;12.286;2022-10-15T02:28:53;16.30;77.30
31731;DHT22;18310;55.586;12.286;2022-10-15T02:32:00;16.40;77.50
31731;DHT22;18310;55.586;12.286;2022-10-15T02:35:08;16.40;77.50
31731;DHT22;18310;55.586;12.286;2022-10-15T02:38:18;16.40;77.40
31731;DHT22;18310;55.586;12.286;2022-10-15T02:41:27;16.40;77.50
31731;DHT22;18310;55.586;12.286;2022-10-15T02:44:32;16.40;77.40
31731;DHT22;18310;55.586;12.286;2022-10-15T02:47:36;16.40;77.40
31731;DHT22;18310;55.586;12.286;2022-10-15T02:50:42;16.40;77.40
31731;DHT22;18310;55.586;12.286;2022-10-15T02:53:45;16.40;77.50
31731;DHT22;18310;55.586;12.286;2022-10-15T02:56:49;16.40;77.30
31731;DHT22;18310;55.586;12.286;2022-10-15T02:59:52;15.50;77.70
31731;DHT22;18310;55.586;12.286;2022-10-15T03:02:56;16.40;77.10
31731;DHT22;18310;55.586;12.286;2022-10-15T03:06:02;16.40;78.10
31731;DHT22;18310;55.586;12.286;2022-10-15T03:09:06;16.30;77.20
31731;DHT22;18310;55.586;12.286;2022-10-15T03:12:10;16.20;77.20
31731;DHT22;18310;55.586;12.286;2022-10-15T03:15:13;16.20;77.40
31731;DHT22;18310;55.586;12.286;2022-10-15T03:18:16;16.30;77.60
31731;DHT22;18310;55.586;12.286;2022-10-15T03:21:20;16.20;77.50
31731;DHT22;18310;55.586;12.286;2022-10-15T03:24:24;16.20;77.70
31731;DHT22;18310;55.586;12.286;2022-10-15T03:27:28;16.20;77.70
31731;DHT22;18310;55.586;12.286;2022-10-15T03:30:33;16.20;77.70
31731;DHT22;18310;55.586;12.286;2022-10-15T03:33:36;16.30;78.60
31731;DHT22;18310;55.586;12.286;2022-10-15T03:36:42;16.30;77.70
31731;DHT22;18310;55.586;12.286;2022-10-15T03:39:51;16.20;77.90
31731;DHT22;18310;55.586;12.286;2022-10-15T03:42:54;16.10;78.10
31731;DHT22;18310;55.586;12.286;2022-10-15T03:46:00;16.20;77.90
31731;DHT22;18310;55.586;12.286;2022-10-15T03:49:05;16.20;78.10
31731;DHT22;18310;55.586;12.286;2022-10-15T03:52:09;16.30;78.00
31731;DHT22;18310;55.586;12.286;2022-10-15T03:55:16;16.30;78.10
31731;DHT22;18310;55.586;12.286;2022-10-15T03:58:20;16.30;78.20
31731;DHT22;18310;55.586;12.286;2022-10-15T04:01:23;16.30;78.10
31731;DHT22;18310;55.586;12.286;2022-10-15T04:04:26;16.30;78.00
31731;DHT22;18310;55.586;12.286;2022-10-15T04:07:31;16.40;78.10
31731;DHT22;18310;55.586;12.286;2022-10-15T04:10:35;16.60;78.20
31731;DHT22;18310;55.586;12.286;2022-10-15T04:13:38;16.30;78.50
31731;DHT22;18310;55.586;12.286;2022-10-15T04:16:43;16.40;78.00
31731;DHT22;18310;55.586;12.286;2022-10-15T04:19:47;16.30;77.90
31731;DHT22;18310;55.586;12.286;2022-10-15T04:22:52;16.30;78.50
31731;DHT22;18310;55.586;12.286;2022-10-15T04:25:57;16.30;78.60
31731;DHT22;18310;55.586;12.286;2022-10-15T04:29:02;16.40;77.90
31731;DHT22;18310;55.586;12.286;2022-10-15T04:32:06;16.30;77.80
31731;DHT22;18310;55.586;12.286;2022-10-15T04:35:13;16.40;77.90
31731;DHT22;18310;55.586;12.286;2022-10-15T04:38:24;16.30;78.00
31731;DHT22;18310;55.586;12.286;2022-10-15T04:41:28;16.30;78.00
31731;DHT22;18310;55.586;12.286;2022-10-15T04:44:34;16.40;78.00
31731;DHT22;18310;55.586;12.286;2022-10-15T04:47:38;16.40;78.10
31731;DHT22;18310;55.586;12.286;2022-10-15T04:50:42;16.30;78.00
31731;DHT22;18310;55.586;12.286;2022-10-15T04:53:48;16.40;78.10
31731;DHT22;18310;55.586;12.286;2022-10-15T04:56:52;16.40;78.20
31731;DHT22;18310;55.586;12.286;2022-10-15T04:59:57;16.40;78.00
31731;DHT22;18310;55.586;12.286;2022-10-15T05:03:00;16.50;78.10
31731;DHT22;18310;55.586;12.286;2022-10-15T05:06:06;16.50;78.60
31731;DHT22;18310;55.586;12.286;2022-10-15T05:09:14;16.50;77.90
31731;DHT22;18310;55.586;12.286;2022-10-15T05:12:17;16.50;77.90
31731;DHT22;18310;55.586;12.286;2022-10-15T05:15:21;16.50;78.40
31731;DHT22;18310;55.586;12.286;2022-10-15T05:18:24;16.50;77.90
31731;DHT22;18310;55.586;12.286;2022-10-15T05:21:27;16.60;77.80
31731;DHT22;18310;55.586;12.286;2022-10-15T05:24:33;16.50;77.80
31731;DHT22;18310;55.586;12.286;2022-10-15T05:27:37;16.50;77.80
31731;DHT22;18310;55.586;12.286;2022-10-15T05:30:40;16.50;77.70
31731;DHT22;18310;55.586;12.286;2022-10-15T05:33:44;16.50;77.80
31731;DHT22;18310;55.586;12.286;2022-10-15T05:36:47;16.60;77.80
31731;DHT22;18310;55.586;12.286;2022-10-15T05:39:52;16.50;77.80
31731;DHT22;18310;55.586;12.286;2022-10-15T05:42:56;16.50;77.80
31731;DHT22;18310;55.586;12.286;2022-10-15T05:46:01;16.60;77.80
31731;DHT22;18310;55.586;12.286;2022-10-15T05:49:05;16.60;77.80
31731;DHT22;18310;55.586;12.286;2022-10-15T05:52:08;16.60;77.80
31731;DHT22;18310;55.586;12.286;2022-10-15T05:55:13;16.60;77.80
31731;DHT22;18310;55.586;12.286;2022-10-15T05:58:16;16.60;77.90
31731;DHT22;18310;55.586;12.286;2022-10-15T06:01:20;16.60;77.90
31731;DHT22;18310;55.586;12.286;2022-10-15T06:04:23;16.60;77.80
31731;DHT22;18310;55.586;12.286;2022-10-15T06:07:26;16.60;77.90
31731;DHT22;18310;55.586;12.286;2022-10-15T06:10:35;16.60;78.00
31731;DHT22;18310;55.586;12.286;2022-10-15T06:13:40;16.60;78.20
31731;DHT22;18310;55.586;12.286;2022-10-15T06:16:44;16.80;78.20
31731;DHT22;18310;55.586;12.286;2022-10-15T06:19:51;16.70;78.00
31731;DHT22;18310;55.586;12.286;2022-10-15T06:22:56;16.70;77.90
31731;DHT22;18310;55.586;12.286;2022-10-15T06:26:04;16.80;78.00
31731;DHT22;18310;55.586;12.286;2022-10-15T06:29:09;16.80;78.00
31731;DHT22;18310;55.586;12.286;2022-10-15T06:32:13;16.80;77.80
31731;DHT22;18310;55.586;12.286;2022-10-15T06:35:17;16.80;77.80
31731;DHT22;18310;55.586;12.286;2022-10-15T06:38:23;16.80;78.20
31731;DHT22;18310;55.586;12.286;2022-10-15T06:41:28;16.80;77.70
31731;DHT22;18310;55.586;12.286;2022-10-15T06:44:31;16.90;77.90
31731;DHT22;18310;55.586;12.286;2022-10-15T06:47:34;16.90;77.90
31731;DHT22;18310;55.586;12.286;2022-10-15T06:50:39;17.00;77.90
31731;DHT22;18310;55.586;12.286;2022-10-15T06:53:42;17.00;77.90
31731;DHT22;18310;55.586;12.286;2022-10-15T06:56:46;17.00;77.70
31731;DHT22;18310;55.586;12.286;2022-10-15T06:59:51;17.00;77.60
31731;DHT22;18310;55.586;12.286;2022-10-15T07:03:02;17.10;77.50
31731;DHT22;18310;55.586;12.286;2022-10-15T07:06:08;17.00;77.50
31731;DHT22;18310;55.586;12.286;2022-10-15T07:09:12;17.10;77.50
31731;DHT22;18310;55.586;12.286;2022-10-15T07:12:18;17.00;77.40
31731;DHT22;18310;55.586;12.286;2022-10-15T07:15:24;17.10;77.50
31731;DHT22;18310;55.586;12.286;2022-10-15T07:18:28;17.10;77.50
31731;DHT22;18310;55.586;12.286;2022-10-15T07:21:31;17.10;77.50
31731;DHT22;18310;55.586;12.286;2022-10-15T07:24:36;17.10;77.70
31731;DHT22;18310;55.586;12.286;2022-10-15T07:27:45;17.10;77.60
31731;DHT22;18310;55.586;12.286;2022-10-15T07:30:53;17.20;77.70
31731;DHT22;18310;55.586;12.286;2022-10-15T07:33:56;17.20;77.70
31731;DHT22;18310;55.586;12.286;2022-10-15T07:36:59;17.30;77.80
31731;DHT22;18310;55.586;12.286;2022-10-15T07:40:02;17.30;77.60
31731;DHT22;18310;55.586;12.286;2022-10-15T07:43:09;17.40;77.70
31731;DHT22;18310;55.586;12.286;2022-10-15T07:46:12;17.40;77.50
31731;DHT22;18310;55.586;12.286;2022-10-15T07:49:25;17.50;77.80
31731;DHT22;18310;55.586;12.286;2022-10-15T07:52:27;17.60;77.80
31731;DHT22;18310;55.586;12.286;2022-10-15T07:55:35;17.70;77.50
31731;DHT22;18310;55.586;12.286;2022-10-15T07:58:43;17.80;77.20
31731;DHT22;18310;55.586;12.286;2022-10-15T08:01:53;17.90;76.90
31731;DHT22;18310;55.586;12.286;2022-10-15T08:04:56;17.90;77.30
31731;DHT22;18310;55.586;12.286;2022-10-15T08:08:02;18.10;77.70
31731;DHT22;18310;55.586;12.286;2022-10-15T08:11:07;18.20;77.60
31731;DHT22;18310;55.586;12.286;2022-10-15T08:14:15;18.50;77.30
31731;DHT22;18310;55.586;12.286;2022-10-15T08:17:19;18.50;77.60
31731;DHT22;18310;55.586;12.286;2022-10-15T08:20:22;18.60;76.90
31731;DHT22;18310;55.586;12.286;2022-10-15T08:23:27;18.70;76.40
31731;DHT22;18310;55.586;12.286;2022-10-15T08:26:30;18.90;76.10
31731;DHT22;18310;55.586;12.286;2022-10-15T08:29:35;18.80;75.50
31731;DHT22;18310;55.586;12.286;2022-10-15T08:32:38;18.90;74.90
31731;DHT22;18310;55.586;12.286;2022-10-15T08:35:43;18.80;74.80
31731;DHT22;18310;55.586;12.286;2022-10-15T08:38:46;18.90;74.80
31731;DHT22;18310;55.586;12.286;2022-10-15T08:41:52;18.90;74.80
31731;DHT22;18310;55.586;12.286;2022-10-15T08:45:02;18.90;74.70
31731;DHT22;18310;55.586;12.286;2022-10-15T08:48:11;18.90;74.40
31731;DHT22;18310;55.586;12.286;2022-10-15T08:51:22;18.90;74.30
31731;DHT22;18310;55.586;12.286;2022-10-15T08:54:29;18.80;74.10
31731;DHT22;18310;55.586;12.286;2022-10-15T08:57:38;18.80;74.00
31731;DHT22;18310;55.586;12.286;2022-10-15T09:00:51;18.80;73.80
31731;DHT22;18310;55.586;12.286;2022-10-15T09:04:04;18.80;73.70
31731;DHT22;18310;55.586;12.286;2022-10-15T09:07:24;18.80;73.70
31731;DHT22;18310;55.586;12.286;2022-10-15T09:10:38;18.80;74.20
31731;DHT22;18310;55.586;12.286;2022-10-15T09:13:45;18.80;74.10
31731;DHT22;18310;55.586;12.286;2022-10-15T09:16:53;18.80;74.40
31731;DHT22;18310;55.586;12.286;2022-10-15T09:20:00;18.90;74.30
31731;DHT22;18310;55.586;12.286;2022-10-15T09:23:15;18.90;74.50
31731;DHT22;18310;55.586;12.286;2022-10-15T09:26:26;19.00;74.30
31731;DHT22;18310;55.586;12.286;2022-10-15T09:29:38;19.10;74.50
31731;DHT22;18310;55.586;12.286;2022-10-15T09:32:54;19.20;73.60
31731;DHT22;18310;55.586;12.286;2022-10-15T09:39:49;19.40;73.40
31731;DHT22;18310;55.586;12.286;2022-10-15T09:43:03;19.50;72.90
31731;DHT22;18310;55.586;12.286;2022-10-15T09:46:10;19.70;73.50
31731;DHT22;18310;55.586;12.286;2022-10-15T09:49:17;19.70;72.90
31731;DHT22;18310;55.586;12.286;2022-10-15T09:52:41;19.80;71.80
31731;DHT22;18310;55.586;12.286;2022-10-15T09:56:05;19.80;70.60
31731;DHT22;18310;55.586;12.286;2022-10-15T09:59:17;19.90;70.60
31731;DHT22;18310;55.586;12.286;2022-10-15T10:02:23;19.80;71.00
31731;DHT22;18310;55.586;12.286;2022-10-15T10:05:32;19.80;70.70
31731;DHT22;18310;55.586;12.286;2022-10-15T10:08:39;19.70;70.60
31731;DHT22;18310;55.586;12.286;2022-10-15T10:11:54;19.80;70.70
31731;DHT22;18310;55.586;12.286;2022-10-15T10:15:03;19.70;70.50
31731;DHT22;18310;55.586;12.286;2022-10-15T10:18:18;19.70;70.60
31731;DHT22;18310;55.586;12.286;2022-10-15T10:21:27;19.70;70.50
31731;DHT22;18310;55.586;12.286;2022-10-15T10:24:32;19.70;70.70
31731;DHT22;18310;55.586;12.286;2022-10-15T10:27:36;19.70;70.80
31731;DHT22;18310;55.586;12.286;2022-10-15T10:30:58;19.80;70.50
31731;DHT22;18310;55.586;12.286;2022-10-15T10:34:09;19.80;70.30
31731;DHT22;18310;55.586;12.286;2022-10-15T10:37:19;19.80;69.80
31731;DHT22;18310;55.586;12.286;2022-10-15T10:40:27;19.80;69.60
31731;DHT22;18310;55.586;12.286;2022-10-15T10:43:33;19.80;69.60
31731;DHT22;18310;55.586;12.286;2022-10-15T10:46:40;19.80;69.60
31731;DHT22;18310;55.586;12.286;2022-10-15T10:49:46;19.70;69.60
31731;DHT22;18310;55.586;12.286;2022-10-15T10:52:53;19.70;69.40
31731;DHT22;18310;55.586;12.286;2022-10-15T10:55:59;19.70;69.10
31731;DHT22;18310;55.586;12.286;2022-10-15T10:59:14;19.70;69.10
31731;DHT22;18310;55.586;12.286;2022-10-15T11:02:21;19.60;68.50
31731;DHT22;18310;55.586;12.286;2022-10-15T11:05:26;19.60;69.00
31731;DHT22;18310;55.586;12.286;2022-10-15T11:08:39;19.60;68.90
31731;DHT22;18310;55.586;12.286;2022-10-15T11:12:00;19.50;68.50
31731;DHT22;18310;55.586;12.286;2022-10-15T11:15:20;19.50;68.60
31731;DHT22;18310;55.586;12.286;2022-10-15T11:18:47;19.50;68.70
31731;DHT22;18310;55.586;12.286;2022-10-15T11:22:13;19.50;68.50
31731;DHT22;18310;55.586;12.286;2022-10-15T11:25:33;19.60;68.00
31731;DHT22;18310;55.586;12.286;2022-10-15T11:28:51;19.50;67.40
31731;DHT22;18310;55.586;12.286;2022-10-15T11:32:13;19.50;67.30
31731;DHT22;18310;55.586;12.286;2022-10-15T11:35:30;19.40;67.10
31731;DHT22;18310;55.586;12.286;2022-10-15T11:39:12;19.60;67.40
31731;DHT22;18310;55.586;12.286;2022-10-15T11:42:34;18.80;66.30
31731;DHT22;18310;55.586;12.286;2022-10-15T11:45:58;19.60;66.80
31731;DHT22;18310;55.586;12.286;2022-10-15T11:49:13;19.60;66.90
31731;DHT22;18310;55.586;12.286;2022-10-15T11:52:35;19.70;67.60
31731;DHT22;18310;55.586;12.286;2022-10-15T11:55:56;19.90;67.80
31731;DHT22;18310;55.586;12.286;2022-10-15T11:59:15;20.10;67.20
31731;DHT22;18310;55.586;12.286;2022-10-15T12:02:32;20.60;66.10
31731;DHT22;18310;55.586;12.286;2022-10-15T12:05:45;21.10;66.20
31731;DHT22;18310;55.586;12.286;2022-10-15T12:08:54;21.10;65.30
31731;DHT22;18310;55.586;12.286;2022-10-15T12:12:03;21.20;65.20
31731;DHT22;18310;55.586;12.286;2022-10-15T12:15:29;21.40;64.40
31731;DHT22;18310;55.586;12.286;2022-10-15T12:18:39;21.60;63.40
31731;DHT22;18310;55.586;12.286;2022-10-15T12:22:03;21.80;63.50
31731;DHT22;18310;55.586;12.286;2022-10-15T12:25:43;22.20;61.70
31731;DHT22;18310;55.586;12.286;2022-10-15T12:28:54;22.00;61.20
31731;DHT22;18310;55.586;12.286;2022-10-15T12:32:21;22.10;61.70
31731;DHT22;18310;55.586;12.286;2022-10-15T12:35:33;22.10;59.50
31731;DHT22;18310;55.586;12.286;2022-10-15T12:38:40;22.10;60.10
31731;DHT22;18310;55.586;12.286;2022-10-15T12:41:57;22.20;60.60
31731;DHT22;18310;55.586;12.286;2022-10-15T12:45:07;22.20;60.40
31731;DHT22;18310;55.586;12.286;2022-10-15T12:48:35;22.30;59.50
31731;DHT22;18310;55.586;12.286;2022-10-15T12:51:42;22.20;58.60
31731;DHT22;18310;55.586;12.286;2022-10-15T12:54:45;22.20;59.60
31731;DHT22;18310;55.586;12.286;2022-10-15T12:58:04;22.20;59.70
31731;DHT22;18310;55.586;12.286;2022-10-15T13:01:29;22.20;58.60
31731;DHT22;18310;55.586;12.286;2022-10-15T13:04:56;22.20;59.40
31731;DHT22;18310;55.586;12.286;2022-10-15T13:08:02;22.10;59.50
31731;DHT22;18310;55.586;12.286;2022-10-15T13:11:19;22.20;59.60
31731;DHT22;18310;55.586;12.286;2022-10-15T13:14:30;22.10;59.00
31731;DHT22;18310;55.586;12.286;2022-10-15T13:17:38;22.10;59.20
31731;DHT22;18310;55.586;12.286;2022-10-15T13:20:45;22.10;59.60
31731;DHT22;18310;55.586;12.286;2022-10-15T13:23:55;22.10;59.70
31731;DHT22;18310;55.586;12.286;2022-10-15T13:26:59;22.20;59.90
31731;DHT22;18310;55.586;12.286;2022-10-15T13:30:09;22.10;59.60
31731;DHT22;18310;55.586;12.286;2022-10-15T13:33:17;22.20;58.60
31731;DHT22;18310;55.586;12.286;2022-10-15T13:36:26;22.10;58.80
31731;DHT22;18310;55.586;12.286;2022-10-15T13:39:35;22.20;58.40
31731;DHT22;18310;55.586;12.286;2022-10-15T13:42:57;22.10;58.40
31731;DHT22;18310;55.586;12.286;2022-10-15T13:46:01;22.10;57.50
31731;DHT22;18310;55.586;12.286;2022-10-15T13:49:10;22.00;57.70
31731;DHT22;18310;55.586;12.286;2022-10-15T13:52:16;21.90;57.00
31731;DHT22;18310;55.586;12.286;2022-10-15T13:55:23;21.80;58.20
31731;DHT22;18310;55.586;12.286;2022-10-15T13:58:32;21.60;58.40
31731;DHT22;18310;55.586;12.286;2022-10-15T14:01:44;21.40;58.70
31731;DHT22;18310;55.586;12.286;2022-10-15T14:04:51;21.30;58.70
31731;DHT22;18310;55.586;12.286;2022-10-15T14:07:56;21.30;59.50
31731;DHT22;18310;55.586;12.286;2022-10-15T14:11:01;21.30;59.70
31731;DHT22;18310;55.586;12.286;2022-10-15T14:14:28;21.20;59.60
31731;DHT22;18310;55.586;12.286;2022-10-15T14:17:33;21.10;59.10
31731;DHT22;18310;55.586;12.286;2022-10-15T14:20:36;20.90;59.40
31731;DHT22;18310;55.586;12.286;2022-10-15T14:23:42;20.70;59.70
31731;DHT22;18310;55.586;12.286;2022-10-15T14:26:50;20.50;59.80
31731;DHT22;18310;55.586;12.286;2022-10-15T14:29:56;20.50;60.50
31731;DHT22;18310;55.586;12.286;2022-10-15T14:33:04;20.10;60.90
31731;DHT22;18310;55.586;12.286;2022-10-15T14:36:12;19.80;61.30
31731;DHT22;18310;55.586;12.286;2022-10-15T14:39:29;19.70;62.00
31731;DHT22;18310;55.586;12.286;2022-10-15T14:42:37;19.50;62.60
31731;DHT22;18310;55.586;12.286;2022-10-15T14:45:56;19.30;63.00
31731;DHT22;18310;55.586;12.286;2022-10-15T14:49:01;19.20;63.60
31731;DHT22;18310;55.586;12.286;2022-10-15T14:52:10;19.20;63.80
31731;DHT22;18310;55.586;12.286;2022-10-15T14:55:30;19.10;64.10
31731;DHT22;18310;55.586;12.286;2022-10-15T14:58:40;19.00;64.60
31731;DHT22;18310;55.586;12.286;2022-10-15T15:01:53;18.90;64.50
31731;DHT22;18310;55.586;12.286;2022-10-15T15:05:15;18.90;64.80
31731;DHT22;18310;55.586;12.286;2022-10-15T15:08:23;18.80;65.20
31731;DHT22;18310;55.586;12.286;2022-10-15T15:11:29;18.70;65.20
31731;DHT22;18310;55.586;12.286;2022-10-15T15:14:32;18.60;65.40
31731;DHT22;18310;55.586;12.286;2022-10-15T15:17:37;18.70;65.60
31731;DHT22;18310;55.586;12.286;2022-10-15T15:20:41;18.60;65.80
31731;DHT22;18310;55.586;12.286;2022-10-15T15:23:47;18.50;65.90
31731;DHT22;18310;55.586;12.286;2022-10-15T15:26:52;18.50;66.20
31731;DHT22;18310;55.586;12.286;2022-10-15T15:29:57;18.70;66.50
31731;DHT22;18310;55.586;12.286;2022-10-15T15:33:01;18.40;66.50
31731;DHT22;18310;55.586;12.286;2022-10-15T15:36:06;18.30;66.60
31731;DHT22;18310;55.586;12.286;2022-10-15T15:39:12;18.30;67.00
31731;DHT22;18310;55.586;12.286;2022-10-15T15:42:18;18.30;67.20
31731;DHT22;18310;55.586;12.286;2022-10-15T15:45:23;18.30;66.90
31731;DHT22;18310;55.586;12.286;2022-10-15T15:48:29;18.30;67.00
31731;DHT22;18310;55.586;12.286;2022-10-15T15:51:35;18.30;67.00
31731;DHT22;18310;55.586;12.286;2022-10-15T15:54:38;18.30;67.20
31731;DHT22;18310;55.586;12.286;2022-10-15T15:57:43;18.20;67.50
31731;DHT22;18310;55.586;12.286;2022-10-15T16:00:47;18.20;67.10
31731;DHT22;18310;55.586;12.286;2022-10-15T16:03:50;18.20;67.30
31731;DHT22;18310;55.586;12.286;2022-10-15T16:06:53;18.20;67.60
31731;DHT22;18310;55.586;12.286;2022-10-15T16:09:57;18.20;67.30
31731;DHT22;18310;55.586;12.286;2022-10-15T16:13:02;18.10;67.40
31731;DHT22;18310;55.586;12.286;2022-10-15T16:16:06;18.10;67.50
31731;DHT22;18310;55.586;12.286;2022-10-15T16:19:09;18.10;67.60
31731;DHT22;18310;55.586;12.286;2022-10-15T16:22:13;18.00;67.80
31731;DHT22;18310;55.586;12.286;2022-10-15T16:25:18;18.00;67.80
31731;DHT22;18310;55.586;12.286;2022-10-15T16:28:28;18.00;68.00
31731;DHT22;18310;55.586;12.286;2022-10-15T16:31:31;17.90;68.10
31731;DHT22;18310;55.586;12.286;2022-10-15T16:34:37;17.90;68.20
31731;DHT22;18310;55.586;12.286;2022-10-15T16:37:40;17.90;68.40
31731;DHT22;18310;55.586;12.286;2022-10-15T16:40:44;17.80;68.60
31731;DHT22;18310;55.586;12.286;2022-10-15T16:43:50;17.80;69.00
31731;DHT22;18310;55.586;12.286;2022-10-15T16:46:54;17.70;69.10
31731;DHT22;18310;55.586;12.286;2022-10-15T16:49:56;17.70;69.20
31731;DHT22;18310;55.586;12.286;2022-10-15T16:53:01;17.60;69.30
31731;DHT22;18310;55.586;12.286;2022-10-15T16:56:10;17.60;69.40
31731;DHT22;18310;55.586;12.286;2022-10-15T16:59:17;17.50;69.60
31731;DHT22;18310;55.586;12.286;2022-10-15T17:02:22;17.40;69.60
31731;DHT22;18310;55.586;12.286;2022-10-15T17:05:26;17.40;69.70
31731;DHT22;18310;55.586;12.286;2022-10-15T17:08:35;17.30;69.80
31731;DHT22;18310;55.586;12.286;2022-10-15T17:11:42;17.20;70.20
31731;DHT22;18310;55.586;12.286;2022-10-15T17:14:50;17.10;70.00
31731;DHT22;18310;55.586;12.286;2022-10-15T17:17:53;17.00;70.30
31731;DHT22;18310;55.586;12.286;2022-10-15T17:20:56;17.00;70.30
31731;DHT22;18310;55.586;12.286;2022-10-15T17:24:01;16.80;70.40
31731;DHT22;18310;55.586;12.286;2022-10-15T17:27:06;16.80;71.70
31731;DHT22;18310;55.586;12.286;2022-10-15T17:30:12;16.70;70.60
31731;DHT22;18310;55.586;12.286;2022-10-15T17:33:16;16.70;71.20
31731;DHT22;18310;55.586;12.286;2022-10-15T17:36:20;17.40;71.70
31731;DHT22;18310;55.586;12.286;2022-10-15T17:39:23;16.60;71.30
31731;DHT22;18310;55.586;12.286;2022-10-15T17:42:26;16.50;71.40
31731;DHT22;18310;55.586;12.286;2022-10-15T17:45:31;16.40;71.80
31731;DHT22;18310;55.586;12.286;2022-10-15T17:48:35;16.40;72.10
31731;DHT22;18310;55.586;12.286;2022-10-15T17:51:40;16.40;72.30
31731;DHT22;18310;55.586;12.286;2022-10-15T17:54:44;16.40;72.40
31731;DHT22;18310;55.586;12.286;2022-10-15T17:57:49;16.30;72.50
31731;DHT22;18310;55.586;12.286;2022-10-15T18:00:57;16.40;72.80
31731;DHT22;18310;55.586;12.286;2022-10-15T18:04:01;16.30;72.90
31731;DHT22;18310;55.586;12.286;2022-10-15T18:07:06;16.30;72.70
31731;DHT22;18310;55.586;12.286;2022-10-15T18:10:10;16.30;72.80
31731;DHT22;18310;55.586;12.286;2022-10-15T18:13:13;16.30;72.80
31731;DHT22;18310;55.586;12.286;2022-10-15T18:16:19;16.20;72.90
31731;DHT22;18310;55.586;12.286;2022-10-15T18:19:23;16.20;73.20
31731;DHT22;18310;55.586;12.286;2022-10-15T18:22:29;16.20;73.20
31731;DHT22;18310;55.586;12.286;2022-10-15T18:25:35;15.60;73.10
31731;DHT22;18310;55.586;12.286;2022-10-15T18:28:40;16.20;73.60
31731;DHT22;18310;55.586;12.286;2022-10-15T18:31:44;16.20;73.80
31731;DHT22;18310;55.586;12.286;2022-10-15T18:34:52;16.10;75.00
31731;DHT22;18310;55.586;12.286;2022-10-15T18:37:55;16.20;73.80
31731;DHT22;18310;55.586;12.286;2022-10-15T18:40:58;16.10;73.90
31731;DHT22;18310;55.586;12.286;2022-10-15T18:44:04;16.20;74.10
31731;DHT22;18310;55.586;12.286;2022-10-15T18:47:11;16.20;74.30
31731;DHT22;18310;55.586;12.286;2022-10-15T18:50:14;16.10;74.50
31731;DHT22;18310;55.586;12.286;2022-10-15T18:53:18;16.10;74.40
31731;DHT22;18310;55.586;12.286;2022-10-15T18:56:21;16.20;74.50
31731;DHT22;18310;55.586;12.286;2022-10-15T18:59:24;16.20;74.80
31731;DHT22;18310;55.586;12.286;2022-10-15T19:02:29;16.20;74.90
31731;DHT22;18310;55.586;12.286;2022-10-15T19:05:33;16.20;75.10
31731;DHT22;18310;55.586;12.286;2022-10-15T19:08:38;16.30;75.10
31731;DHT22;18310;55.586;12.286;2022-10-15T19:11:42;16.30;75.20
31731;DHT22;18310;55.586;12.286;2022-10-15T19:14:48;16.30;76.30
31731;DHT22;18310;55.586;12.286;2022-10-15T19:17:54;16.40;75.00
31731;DHT22;18310;55.586;12.286;2022-10-15T19:20:57;16.90;75.60
31731;DHT22;18310;55.586;12.286;2022-10-15T19:24:00;16.40;75.20
31731;DHT22;18310;55.586;12.286;2022-10-15T19:27:04;16.40;75.10
31731;DHT22;18310;55.586;12.286;2022-10-15T19:30:08;16.40;75.10
31731;DHT22;18310;55.586;12.286;2022-10-15T19:33:15;16.50;75.30